sensor_id;sensor_type;location;lat;lon;timestamp;P1;durP1;ratioP1;P2;durP2;ratioP2
23737;SDS011;12049;51.068;3.688;2022-12-07T00:01:09;16.73;;;8.63;;
23737;SDS011;12049;51.068;3.688;2022-12-07T00:03:37;11.02;;;8.35;;
23737;SDS011;12049;51.068;3.688;2022-12-07T00:06:04;11.75;;;7.75;;
23737;SDS011;12049;51.068;3.688;2022-12-07T00:08:31;13.82;;;8.77;;
23737;SDS011;12049;51.068;3.688;2022-12-07T00:11:02;11.93;;;7.95;;
23737;SDS011;12049;51.068;3.688;2022-12-07T00:13:32;14.05;;;7.68;;
23737;SDS011;12049;51.068;3.688;2022-12-07T00:16:00;12.05;;;8.10;;
23737;SDS011;12049;51.068;3.688;2022-12-07T00:18:29;9.68;;;8.00;;
23737;SDS011;12049;51.068;3.688;2022-12-07T00:20:59;11.05;;;7.38;;
23737;SDS011;12049;51.068;3.688;2022-12-07T00:23:26;9.23;;;7.00;;
23737;SDS011;12049;51.068;3.688;2022-12-07T00:25:51;9.63;;;5.90;;
23737;SDS011;12049;51.068;3.688;2022-12-07T00:28:17;10.30;;;5.50;;
23737;SDS011;12049;51.068;3.688;2022-12-07T00:30:43;7.30;;;4.80;;
23737;SDS011;12049;51.068;3.688;2022-12-07T00:33:08;10.10;;;5.90;;
23737;SDS011;12049;51.068;3.688;2022-12-07T00:35:34;7.88;;;5.75;;
23737;SDS011;12049;51.068;3.688;2022-12-07T00:37:59;7.07;;;5.55;;
23737;SDS011;12049;51.068;3.688;2022-12-07T00:40:25;6.15;;;5.00;;
23737;SDS011;12049;51.068;3.688;2022-12-07T00:42:51;8.60;;;3.92;;
23737;SDS011;12049;51.068;3.688;2022-12-07T00:45:16;6.00;;;3.33;;
23737;SDS011;12049;51.068;3.688;2022-12-07T00:47:42;5.45;;;3.28;;
23737;SDS011;12049;51.068;3.688;2022-12-07T00:50:08;7.20;;;3.45;;
23737;SDS011;12049;51.068;3.688;2022-12-07T00:52:34;6.10;;;3.20;;
23737;SDS011;12049;51.068;3.688;2022-12-07T00:54:59;4.47;;;2.90;;
23737;SDS011;12049;51.068;3.688;2022-12-07T00:57:25;6.85;;;2.92;;
23737;SDS011;12049;51.068;3.688;2022-12-07T00:59:50;4.40;;;3.00;;
23737;SDS011;12049;51.068;3.688;2022-12-07T01:02:20;9.20;;;3.42;;
23737;SDS011;12049;51.068;3.688;2022-12-07T01:04:49;8.18;;;3.90;;
23737;SDS011;12049;51.068;3.688;2022-12-07T01:07:14;5.30;;;3.30;;
23737;SDS011;12049;51.068;3.688;2022-12-07T01:09:40;6.57;;;3.15;;
23737;SDS011;12049;51.068;3.688;2022-12-07T01:12:06;7.07;;;3.60;;
23737;SDS011;12049;51.068;3.688;2022-12-07T01:14:32;5.55;;;3.67;;
23737;SDS011;12049;51.068;3.688;2022-12-07T01:16:57;8.77;;;3.80;;
23737;SDS011;12049;51.068;3.688;2022-12-07T01:19:23;6.05;;;3.28;;
23737;SDS011;12049;51.068;3.688;2022-12-07T01:21:48;6.60;;;3.42;;
23737;SDS011;12049;51.068;3.688;2022-12-07T01:24:14;6.00;;;3.58;;
23737;SDS011;12049;51.068;3.688;2022-12-07T01:26:40;7.38;;;4.15;;
23737;SDS011;12049;51.068;3.688;2022-12-07T01:29:06;9.38;;;3.85;;
23737;SDS011;12049;51.068;3.688;2022-12-07T01:31:31;8.00;;;4.03;;
23737;SDS011;12049;51.068;3.688;2022-12-07T01:33:58;8.77;;;4.57;;
23737;SDS011;12049;51.068;3.688;2022-12-07T01:38:54;9.48;;;4.82;;
23737;SDS011;12049;51.068;3.688;2022-12-07T01:41:21;9.88;;;5.90;;
23737;SDS011;12049;51.068;3.688;2022-12-07T01:46:33;9.38;;;5.15;;
23737;SDS011;12049;51.068;3.688;2022-12-07T01:48:59;9.57;;;5.25;;
23737;SDS011;12049;51.068;3.688;2022-12-07T01:51:25;8.75;;;4.88;;
23737;SDS011;12049;51.068;3.688;2022-12-07T01:53:52;5.72;;;4.13;;
23737;SDS011;12049;51.068;3.688;2022-12-07T01:56:18;6.40;;;4.82;;
23737;SDS011;12049;51.068;3.688;2022-12-07T01:58:47;7.22;;;5.00;;
23737;SDS011;12049;51.068;3.688;2022-12-07T02:01:14;8.68;;;5.20;;
23737;SDS011;12049;51.068;3.688;2022-12-07T02:03:40;8.30;;;4.82;;
23737;SDS011;12049;51.068;3.688;2022-12-07T02:06:07;8.77;;;5.10;;
23737;SDS011;12049;51.068;3.688;2022-12-07T02:08:34;8.77;;;4.80;;
23737;SDS011;12049;51.068;3.688;2022-12-07T02:11:01;6.03;;;4.68;;
23737;SDS011;12049;51.068;3.688;2022-12-07T02:13:29;5.47;;;4.70;;
23737;SDS011;12049;51.068;3.688;2022-12-07T02:29:37;7.13;;;4.90;;
23737;SDS011;12049;51.068;3.688;2022-12-07T02:37:29;6.50;;;4.85;;
23737;SDS011;12049;51.068;3.688;2022-12-07T02:40:29;5.45;;;4.78;;
23737;SDS011;12049;51.068;3.688;2022-12-07T02:43:04;6.25;;;5.20;;
23737;SDS011;12049;51.068;3.688;2022-12-07T02:45:41;7.72;;;5.53;;
23737;SDS011;12049;51.068;3.688;2022-12-07T02:48:09;8.05;;;5.10;;
23737;SDS011;12049;51.068;3.688;2022-12-07T02:50:38;8.10;;;5.60;;
23737;SDS011;12049;51.068;3.688;2022-12-07T02:53:27;7.68;;;5.25;;
23737;SDS011;12049;51.068;3.688;2022-12-07T02:55:58;9.65;;;5.30;;
23737;SDS011;12049;51.068;3.688;2022-12-07T03:04:00;8.20;;;5.40;;
23737;SDS011;12049;51.068;3.688;2022-12-07T03:06:39;8.50;;;5.55;;
23737;SDS011;12049;51.068;3.688;2022-12-07T03:11:46;10.77;;;5.60;;
23737;SDS011;12049;51.068;3.688;2022-12-07T03:14:20;9.70;;;5.28;;
23737;SDS011;12049;51.068;3.688;2022-12-07T03:16:59;9.13;;;5.50;;
23737;SDS011;12049;51.068;3.688;2022-12-07T03:19:40;9.55;;;5.40;;
23737;SDS011;12049;51.068;3.688;2022-12-07T03:22:08;7.10;;;5.25;;
23737;SDS011;12049;51.068;3.688;2022-12-07T03:24:39;10.10;;;5.65;;
23737;SDS011;12049;51.068;3.688;2022-12-07T03:29:43;7.60;;;5.00;;
23737;SDS011;12049;51.068;3.688;2022-12-07T03:32:16;7.63;;;4.53;;
23737;SDS011;12049;51.068;3.688;2022-12-07T03:37:35;8.20;;;4.47;;
23737;SDS011;12049;51.068;3.688;2022-12-07T03:40:10;5.40;;;4.20;;
23737;SDS011;12049;51.068;3.688;2022-12-07T03:42:43;7.93;;;4.28;;
23737;SDS011;12049;51.068;3.688;2022-12-07T03:45:09;6.10;;;4.10;;
23737;SDS011;12049;51.068;3.688;2022-12-07T03:53:34;5.75;;;3.78;;
23737;SDS011;12049;51.068;3.688;2022-12-07T03:55:46;4.95;;;3.28;;
23737;SDS011;12049;51.068;3.688;2022-12-07T03:58:14;4.20;;;3.25;;
23737;SDS011;12049;51.068;3.688;2022-12-07T04:00:42;5.97;;;3.55;;
23737;SDS011;12049;51.068;3.688;2022-12-07T04:03:09;5.95;;;3.60;;
23737;SDS011;12049;51.068;3.688;2022-12-07T04:05:35;6.15;;;3.22;;
23737;SDS011;12049;51.068;3.688;2022-12-07T04:08:01;5.95;;;3.25;;
23737;SDS011;12049;51.068;3.688;2022-12-07T04:10:27;4.35;;;3.35;;
23737;SDS011;12049;51.068;3.688;2022-12-07T04:12:53;4.70;;;2.90;;
23737;SDS011;12049;51.068;3.688;2022-12-07T04:15:19;5.65;;;3.42;;
23737;SDS011;12049;51.068;3.688;2022-12-07T04:17:44;5.97;;;3.20;;
23737;SDS011;12049;51.068;3.688;2022-12-07T04:20:10;7.18;;;3.47;;
23737;SDS011;12049;51.068;3.688;2022-12-07T04:22:39;6.03;;;3.15;;
23737;SDS011;12049;51.068;3.688;2022-12-07T04:25:05;7.53;;;3.25;;
23737;SDS011;12049;51.068;3.688;2022-12-07T04:27:31;7.20;;;3.53;;
23737;SDS011;12049;51.068;3.688;2022-12-07T04:29:57;4.45;;;3.30;;
23737;SDS011;12049;51.068;3.688;2022-12-07T04:32:23;4.85;;;3.13;;
23737;SDS011;12049;51.068;3.688;2022-12-07T04:34:49;8.02;;;3.47;;
23737;SDS011;12049;51.068;3.688;2022-12-07T04:37:15;4.90;;;3.65;;
23737;SDS011;12049;51.068;3.688;2022-12-07T04:39:42;7.50;;;3.28;;
23737;SDS011;12049;51.068;3.688;2022-12-07T04:42:09;6.30;;;3.30;;
23737;SDS011;12049;51.068;3.688;2022-12-07T04:44:36;4.75;;;3.08;;
23737;SDS011;12049;51.068;3.688;2022-12-07T04:47:02;7.93;;;3.13;;
23737;SDS011;12049;51.068;3.688;2022-12-07T04:49:28;6.50;;;3.30;;
23737;SDS011;12049;51.068;3.688;2022-12-07T04:51:53;6.32;;;3.45;;
23737;SDS011;12049;51.068;3.688;2022-12-07T04:54:19;8.88;;;3.70;;
23737;SDS011;12049;51.068;3.688;2022-12-07T04:56:45;7.32;;;3.88;;
23737;SDS011;12049;51.068;3.688;2022-12-07T04:59:11;7.35;;;3.58;;
23737;SDS011;12049;51.068;3.688;2022-12-07T05:01:38;7.53;;;3.80;;
23737;SDS011;12049;51.068;3.688;2022-12-07T05:04:04;7.40;;;3.67;;
23737;SDS011;12049;51.068;3.688;2022-12-07T05:06:30;7.10;;;3.17;;
23737;SDS011;12049;51.068;3.688;2022-12-07T05:08:55;6.82;;;3.00;;
23737;SDS011;12049;51.068;3.688;2022-12-07T05:11:21;9.85;;;3.03;;
23737;SDS011;12049;51.068;3.688;2022-12-07T05:16:42;8.80;;;3.58;;
23737;SDS011;12049;51.068;3.688;2022-12-07T05:19:08;8.32;;;3.17;;
23737;SDS011;12049;51.068;3.688;2022-12-07T05:21:35;6.10;;;3.00;;
23737;SDS011;12049;51.068;3.688;2022-12-07T05:24:01;6.22;;;2.85;;
23737;SDS011;12049;51.068;3.688;2022-12-07T05:26:27;6.20;;;2.90;;
23737;SDS011;12049;51.068;3.688;2022-12-07T05:28:54;4.00;;;2.90;;
23737;SDS011;12049;51.068;3.688;2022-12-07T05:31:21;3.58;;;2.72;;
23737;SDS011;12049;51.068;3.688;2022-12-07T05:33:47;5.40;;;2.80;;
23737;SDS011;12049;51.068;3.688;2022-12-07T05:36:13;4.07;;;2.70;;
23737;SDS011;12049;51.068;3.688;2022-12-07T05:38:39;4.80;;;2.70;;
23737;SDS011;12049;51.068;3.688;2022-12-07T05:41:05;3.38;;;2.35;;
23737;SDS011;12049;51.068;3.688;2022-12-07T05:43:32;4.35;;;2.55;;
23737;SDS011;12049;51.068;3.688;2022-12-07T05:45:58;2.88;;;2.30;;
23737;SDS011;12049;51.068;3.688;2022-12-07T05:48:24;4.45;;;2.50;;
23737;SDS011;12049;51.068;3.688;2022-12-07T05:50:50;3.80;;;2.88;;
23737;SDS011;12049;51.068;3.688;2022-12-07T05:53:16;8.55;;;2.78;;
23737;SDS011;12049;51.068;3.688;2022-12-07T05:55:42;4.53;;;2.58;;
23737;SDS011;12049;51.068;3.688;2022-12-07T05:58:09;5.40;;;2.60;;
23737;SDS011;12049;51.068;3.688;2022-12-07T06:00:56;4.35;;;2.72;;
23737;SDS011;12049;51.068;3.688;2022-12-07T06:03:22;4.40;;;3.20;;
23737;SDS011;12049;51.068;3.688;2022-12-07T06:05:48;6.82;;;2.80;;
23737;SDS011;12049;51.068;3.688;2022-12-07T06:08:14;4.97;;;2.70;;
23737;SDS011;12049;51.068;3.688;2022-12-07T06:10:40;5.07;;;2.90;;
23737;SDS011;12049;51.068;3.688;2022-12-07T06:13:06;10.00;;;5.38;;
23737;SDS011;12049;51.068;3.688;2022-12-07T06:15:34;6.10;;;2.70;;
23737;SDS011;12049;51.068;3.688;2022-12-07T06:18:01;3.92;;;2.20;;
23737;SDS011;12049;51.068;3.688;2022-12-07T06:20:27;6.47;;;2.83;;
23737;SDS011;12049;51.068;3.688;2022-12-07T06:22:52;5.70;;;2.70;;
23737;SDS011;12049;51.068;3.688;2022-12-07T06:25:18;5.22;;;2.60;;
23737;SDS011;12049;51.068;3.688;2022-12-07T06:27:43;10.27;;;3.30;;
23737;SDS011;12049;51.068;3.688;2022-12-07T06:30:09;7.75;;;3.10;;
23737;SDS011;12049;51.068;3.688;2022-12-07T06:32:35;4.47;;;2.80;;
23737;SDS011;12049;51.068;3.688;2022-12-07T06:35:02;4.25;;;2.90;;
23737;SDS011;12049;51.068;3.688;2022-12-07T06:37:28;4.47;;;2.88;;
23737;SDS011;12049;51.068;3.688;2022-12-07T06:39:53;7.30;;;3.42;;
23737;SDS011;12049;51.068;3.688;2022-12-07T06:42:19;6.82;;;3.40;;
23737;SDS011;12049;51.068;3.688;2022-12-07T06:44:44;10.35;;;3.88;;
23737;SDS011;12049;51.068;3.688;2022-12-07T06:47:10;18.23;;;11.90;;
23737;SDS011;12049;51.068;3.688;2022-12-07T06:49:36;7.28;;;3.92;;
23737;SDS011;12049;51.068;3.688;2022-12-07T06:52:02;9.10;;;3.90;;
23737;SDS011;12049;51.068;3.688;2022-12-07T06:54:29;6.72;;;3.45;;
23737;SDS011;12049;51.068;3.688;2022-12-07T06:56:55;7.70;;;3.65;;
23737;SDS011;12049;51.068;3.688;2022-12-07T06:59:21;7.95;;;3.78;;
23737;SDS011;12049;51.068;3.688;2022-12-07T07:01:47;13.25;;;7.28;;
23737;SDS011;12049;51.068;3.688;2022-12-07T07:04:12;5.93;;;3.70;;
23737;SDS011;12049;51.068;3.688;2022-12-07T07:06:38;7.57;;;3.50;;
23737;SDS011;12049;51.068;3.688;2022-12-07T07:09:03;7.93;;;3.88;;
23737;SDS011;12049;51.068;3.688;2022-12-07T07:11:29;8.48;;;3.67;;
23737;SDS011;12049;51.068;3.688;2022-12-07T07:13:55;14.32;;;7.25;;
23737;SDS011;12049;51.068;3.688;2022-12-07T07:16:23;10.45;;;4.32;;
23737;SDS011;12049;51.068;3.688;2022-12-07T07:18:49;8.82;;;3.75;;
23737;SDS011;12049;51.068;3.688;2022-12-07T07:21:15;9.50;;;4.28;;
23737;SDS011;12049;51.068;3.688;2022-12-07T07:23:40;10.43;;;4.30;;
23737;SDS011;12049;51.068;3.688;2022-12-07T07:26:06;8.07;;;4.05;;
23737;SDS011;12049;51.068;3.688;2022-12-07T07:28:32;8.73;;;3.90;;
23737;SDS011;12049;51.068;3.688;2022-12-07T07:30:58;11.93;;;4.15;;
23737;SDS011;12049;51.068;3.688;2022-12-07T07:33:23;10.90;;;4.57;;
23737;SDS011;12049;51.068;3.688;2022-12-07T07:35:49;12.13;;;4.40;;
23737;SDS011;12049;51.068;3.688;2022-12-07T07:38:14;7.13;;;3.20;;
23737;SDS011;12049;51.068;3.688;2022-12-07T07:40:40;11.52;;;4.45;;
23737;SDS011;12049;51.068;3.688;2022-12-07T07:43:06;11.18;;;3.95;;
23737;SDS011;12049;51.068;3.688;2022-12-07T07:45:31;8.73;;;3.35;;
23737;SDS011;12049;51.068;3.688;2022-12-07T07:47:57;6.55;;;3.65;;
23737;SDS011;12049;51.068;3.688;2022-12-07T07:50:23;11.27;;;4.88;;
23737;SDS011;12049;51.068;3.688;2022-12-07T07:52:48;9.95;;;4.30;;
23737;SDS011;12049;51.068;3.688;2022-12-07T07:55:14;8.60;;;4.30;;
23737;SDS011;12049;51.068;3.688;2022-12-07T07:57:40;7.82;;;4.07;;
23737;SDS011;12049;51.068;3.688;2022-12-07T08:00:10;8.85;;;4.05;;
23737;SDS011;12049;51.068;3.688;2022-12-07T08:02:37;6.18;;;3.92;;
23737;SDS011;12049;51.068;3.688;2022-12-07T08:05:03;8.20;;;4.15;;
23737;SDS011;12049;51.068;3.688;2022-12-07T08:07:29;9.60;;;3.88;;
23737;SDS011;12049;51.068;3.688;2022-12-07T08:09:55;8.20;;;3.83;;
23737;SDS011;12049;51.068;3.688;2022-12-07T08:12:20;7.93;;;3.67;;
23737;SDS011;12049;51.068;3.688;2022-12-07T08:14:46;7.18;;;3.78;;
23737;SDS011;12049;51.068;3.688;2022-12-07T08:17:12;9.75;;;3.95;;
23737;SDS011;12049;51.068;3.688;2022-12-07T08:19:37;8.80;;;3.63;;
23737;SDS011;12049;51.068;3.688;2022-12-07T08:22:03;8.88;;;3.33;;
23737;SDS011;12049;51.068;3.688;2022-12-07T08:24:29;6.78;;;2.90;;
23737;SDS011;12049;51.068;3.688;2022-12-07T08:26:55;4.63;;;2.70;;
23737;SDS011;12049;51.068;3.688;2022-12-07T08:29:20;8.27;;;3.50;;
23737;SDS011;12049;51.068;3.688;2022-12-07T08:31:46;7.88;;;3.60;;
23737;SDS011;12049;51.068;3.688;2022-12-07T08:34:12;8.45;;;3.25;;
23737;SDS011;12049;51.068;3.688;2022-12-07T08:36:38;7.15;;;3.65;;
23737;SDS011;12049;51.068;3.688;2022-12-07T08:39:04;11.15;;;3.15;;
23737;SDS011;12049;51.068;3.688;2022-12-07T08:41:30;8.20;;;3.42;;
23737;SDS011;12049;51.068;3.688;2022-12-07T08:43:56;9.18;;;3.65;;
23737;SDS011;12049;51.068;3.688;2022-12-07T08:49:08;8.77;;;3.20;;
23737;SDS011;12049;51.068;3.688;2022-12-07T08:51:35;11.23;;;3.42;;
23737;SDS011;12049;51.068;3.688;2022-12-07T08:54:02;10.45;;;4.10;;
23737;SDS011;12049;51.068;3.688;2022-12-07T08:56:31;8.85;;;4.05;;
23737;SDS011;12049;51.068;3.688;2022-12-07T08:58:58;10.73;;;3.92;;
23737;SDS011;12049;51.068;3.688;2022-12-07T09:01:23;12.10;;;3.80;;
23737;SDS011;12049;51.068;3.688;2022-12-07T09:03:49;5.85;;;3.40;;
23737;SDS011;12049;51.068;3.688;2022-12-07T09:06:15;10.50;;;3.95;;
23737;SDS011;12049;51.068;3.688;2022-12-07T09:08:41;7.80;;;4.00;;
23737;SDS011;12049;51.068;3.688;2022-12-07T09:11:11;9.70;;;4.03;;
23737;SDS011;12049;51.068;3.688;2022-12-07T09:13:37;8.10;;;3.22;;
23737;SDS011;12049;51.068;3.688;2022-12-07T09:16:02;7.95;;;2.90;;
23737;SDS011;12049;51.068;3.688;2022-12-07T09:18:28;7.30;;;3.65;;
23737;SDS011;12049;51.068;3.688;2022-12-07T09:20:54;8.00;;;2.88;;
23737;SDS011;12049;51.068;3.688;2022-12-07T09:23:21;11.40;;;2.95;;
23737;SDS011;12049;51.068;3.688;2022-12-07T09:25:46;8.00;;;2.88;;
23737;SDS011;12049;51.068;3.688;2022-12-07T09:28:12;10.25;;;3.35;;
23737;SDS011;12049;51.068;3.688;2022-12-07T09:30:38;7.15;;;2.58;;
23737;SDS011;12049;51.068;3.688;2022-12-07T09:33:03;6.80;;;2.67;;
23737;SDS011;12049;51.068;3.688;2022-12-07T09:35:29;8.38;;;2.60;;
23737;SDS011;12049;51.068;3.688;2022-12-07T09:37:54;6.38;;;2.88;;
23737;SDS011;12049;51.068;3.688;2022-12-07T09:40:21;11.30;;;4.75;;
23737;SDS011;12049;51.068;3.688;2022-12-07T09:42:49;12.40;;;4.57;;
23737;SDS011;12049;51.068;3.688;2022-12-07T09:45:25;7.22;;;3.58;;
23737;SDS011;12049;51.068;3.688;2022-12-07T09:47:56;10.75;;;3.90;;
23737;SDS011;12049;51.068;3.688;2022-12-07T09:50:23;8.00;;;3.22;;
23737;SDS011;12049;51.068;3.688;2022-12-07T09:52:51;10.73;;;3.38;;
23737;SDS011;12049;51.068;3.688;2022-12-07T09:55:26;12.00;;;3.60;;
23737;SDS011;12049;51.068;3.688;2022-12-07T09:57:53;11.82;;;3.72;;
23737;SDS011;12049;51.068;3.688;2022-12-07T10:00:21;7.97;;;3.20;;
23737;SDS011;12049;51.068;3.688;2022-12-07T10:07:52;6.30;;;3.20;;
23737;SDS011;12049;51.068;3.688;2022-12-07T10:10:29;8.00;;;3.00;;
23737;SDS011;12049;51.068;3.688;2022-12-07T10:12:58;12.10;;;3.65;;
23737;SDS011;12049;51.068;3.688;2022-12-07T10:15:39;11.77;;;3.30;;
23737;SDS011;12049;51.068;3.688;2022-12-07T10:26:36;9.13;;;3.30;;
23737;SDS011;12049;51.068;3.688;2022-12-07T10:31:52;10.60;;;3.70;;
23737;SDS011;12049;51.068;3.688;2022-12-07T10:34:35;7.45;;;3.92;;
23737;SDS011;12049;51.068;3.688;2022-12-07T10:37:14;11.63;;;3.60;;
23737;SDS011;12049;51.068;3.688;2022-12-07T10:39:50;9.55;;;3.70;;
23737;SDS011;12049;51.068;3.688;2022-12-07T10:42:27;10.48;;;4.05;;
23737;SDS011;12049;51.068;3.688;2022-12-07T10:47:49;9.98;;;3.83;;
23737;SDS011;12049;51.068;3.688;2022-12-07T11:04:55;8.75;;;4.38;;
23737;SDS011;12049;51.068;3.688;2022-12-07T11:10:30;5.32;;;2.80;;
23737;SDS011;12049;51.068;3.688;2022-12-07T11:18:43;9.25;;;3.40;;
23737;SDS011;12049;51.068;3.688;2022-12-07T11:37:36;6.57;;;2.30;;
23737;SDS011;12049;51.068;3.688;2022-12-07T11:40:04;6.63;;;2.33;;
23737;SDS011;12049;51.068;3.688;2022-12-07T11:42:34;6.18;;;2.70;;
23737;SDS011;12049;51.068;3.688;2022-12-07T11:45:23;8.85;;;2.90;;
23737;SDS011;12049;51.068;3.688;2022-12-07T11:50:33;5.07;;;2.72;;
23737;SDS011;12049;51.068;3.688;2022-12-07T12:00:46;15.23;;;4.90;;
23737;SDS011;12049;51.068;3.688;2022-12-07T12:03:21;8.65;;;3.17;;
23737;SDS011;12049;51.068;3.688;2022-12-07T12:05:56;13.60;;;4.27;;
23737;SDS011;12049;51.068;3.688;2022-12-07T12:08:32;6.05;;;2.28;;
23737;SDS011;12049;51.068;3.688;2022-12-07T12:11:25;6.45;;;2.47;;
23737;SDS011;12049;51.068;3.688;2022-12-07T12:22:40;8.45;;;2.33;;
23737;SDS011;12049;51.068;3.688;2022-12-07T12:25:19;8.10;;;2.83;;
23737;SDS011;12049;51.068;3.688;2022-12-07T12:27:49;8.18;;;2.90;;
23737;SDS011;12049;51.068;3.688;2022-12-07T12:30:29;6.57;;;2.40;;
23737;SDS011;12049;51.068;3.688;2022-12-07T12:33:17;7.78;;;2.95;;
23737;SDS011;12049;51.068;3.688;2022-12-07T12:38:51;5.32;;;2.85;;
23737;SDS011;12049;51.068;3.688;2022-12-07T12:44:01;6.53;;;2.70;;
23737;SDS011;12049;51.068;3.688;2022-12-07T12:51:45;7.95;;;3.55;;
23737;SDS011;12049;51.068;3.688;2022-12-07T12:59:33;5.63;;;3.25;;
23737;SDS011;12049;51.068;3.688;2022-12-07T13:02:25;8.43;;;2.78;;
23737;SDS011;12049;51.068;3.688;2022-12-07T13:15:41;8.85;;;3.00;;
23737;SDS011;12049;51.068;3.688;2022-12-07T13:26:15;7.65;;;3.08;;
23737;SDS011;12049;51.068;3.688;2022-12-07T13:29:04;7.10;;;3.00;;
23737;SDS011;12049;51.068;3.688;2022-12-07T13:36:59;7.30;;;2.85;;
23737;SDS011;12049;51.068;3.688;2022-12-07T13:39:29;7.72;;;3.10;;
23737;SDS011;12049;51.068;3.688;2022-12-07T13:41:57;9.35;;;2.92;;
23737;SDS011;12049;51.068;3.688;2022-12-07T13:44:25;9.88;;;3.97;;
23737;SDS011;12049;51.068;3.688;2022-12-07T13:49:54;7.63;;;3.50;;
23737;SDS011;12049;51.068;3.688;2022-12-07T13:52:25;8.50;;;3.60;;
23737;SDS011;12049;51.068;3.688;2022-12-07T13:57:31;7.93;;;3.47;;
23737;SDS011;12049;51.068;3.688;2022-12-07T14:00:00;8.98;;;3.75;;
23737;SDS011;12049;51.068;3.688;2022-12-07T14:07:53;9.43;;;3.28;;
23737;SDS011;12049;51.068;3.688;2022-12-07T14:12:49;11.48;;;6.78;;
23737;SDS011;12049;51.068;3.688;2022-12-07T14:15:26;8.43;;;4.75;;
23737;SDS011;12049;51.068;3.688;2022-12-07T14:17:55;5.53;;;2.97;;
23737;SDS011;12049;51.068;3.688;2022-12-07T14:21:01;6.07;;;2.53;;
23737;SDS011;12049;51.068;3.688;2022-12-07T14:23:24;6.10;;;2.40;;
23737;SDS011;12049;51.068;3.688;2022-12-07T14:25:52;6.10;;;2.20;;
23737;SDS011;12049;51.068;3.688;2022-12-07T14:28:25;6.32;;;2.65;;
23737;SDS011;12049;51.068;3.688;2022-12-07T14:30:55;7.65;;;2.60;;
23737;SDS011;12049;51.068;3.688;2022-12-07T14:33:22;8.32;;;2.47;;
23737;SDS011;12049;51.068;3.688;2022-12-07T14:35:48;3.20;;;2.08;;
23737;SDS011;12049;51.068;3.688;2022-12-07T14:38:14;6.03;;;2.08;;
23737;SDS011;12049;51.068;3.688;2022-12-07T14:40:40;6.93;;;2.08;;
23737;SDS011;12049;51.068;3.688;2022-12-07T14:43:10;4.63;;;2.17;;
23737;SDS011;12049;51.068;3.688;2022-12-07T14:45:39;4.40;;;2.47;;
23737;SDS011;12049;51.068;3.688;2022-12-07T14:48:05;3.63;;;1.90;;
23737;SDS011;12049;51.068;3.688;2022-12-07T14:50:37;6.57;;;2.50;;
23737;SDS011;12049;51.068;3.688;2022-12-07T14:53:10;4.22;;;2.28;;
23737;SDS011;12049;51.068;3.688;2022-12-07T14:55:40;5.60;;;2.22;;
23737;SDS011;12049;51.068;3.688;2022-12-07T14:58:06;6.10;;;2.00;;
23737;SDS011;12049;51.068;3.688;2022-12-07T15:00:33;5.70;;;2.40;;
23737;SDS011;12049;51.068;3.688;2022-12-07T15:02:59;5.82;;;2.45;;
23737;SDS011;12049;51.068;3.688;2022-12-07T15:05:24;6.53;;;2.50;;
23737;SDS011;12049;51.068;3.688;2022-12-07T15:07:50;5.07;;;2.30;;
23737;SDS011;12049;51.068;3.688;2022-12-07T15:10:21;5.85;;;2.45;;
23737;SDS011;12049;51.068;3.688;2022-12-07T15:13:00;5.75;;;2.65;;
23737;SDS011;12049;51.068;3.688;2022-12-07T15:15:45;7.05;;;2.78;;
23737;SDS011;12049;51.068;3.688;2022-12-07T15:18:11;5.57;;;3.03;;
23737;SDS011;12049;51.068;3.688;2022-12-07T15:20:37;7.47;;;3.22;;
23737;SDS011;12049;51.068;3.688;2022-12-07T15:23:03;12.55;;;3.00;;
23737;SDS011;12049;51.068;3.688;2022-12-07T15:25:28;9.85;;;2.60;;
23737;SDS011;12049;51.068;3.688;2022-12-07T15:27:54;7.53;;;2.78;;
23737;SDS011;12049;51.068;3.688;2022-12-07T15:30:20;6.80;;;2.67;;
23737;SDS011;12049;51.068;3.688;2022-12-07T15:32:49;7.22;;;2.58;;
23737;SDS011;12049;51.068;3.688;2022-12-07T15:35:15;6.53;;;2.90;;
23737;SDS011;12049;51.068;3.688;2022-12-07T15:37:41;9.38;;;3.05;;
23737;SDS011;12049;51.068;3.688;2022-12-07T15:40:06;4.95;;;3.05;;
23737;SDS011;12049;51.068;3.688;2022-12-07T15:42:32;5.88;;;3.22;;
23737;SDS011;12049;51.068;3.688;2022-12-07T15:44:58;5.25;;;2.40;;
23737;SDS011;12049;51.068;3.688;2022-12-07T15:47:39;10.53;;;3.03;;
23737;SDS011;12049;51.068;3.688;2022-12-07T15:50:08;6.28;;;2.97;;
23737;SDS011;12049;51.068;3.688;2022-12-07T15:52:36;8.38;;;3.10;;
23737;SDS011;12049;51.068;3.688;2022-12-07T15:55:02;6.70;;;2.88;;
23737;SDS011;12049;51.068;3.688;2022-12-07T15:57:28;6.07;;;2.42;;
23737;SDS011;12049;51.068;3.688;2022-12-07T15:59:54;9.13;;;2.83;;
23737;SDS011;12049;51.068;3.688;2022-12-07T16:02:20;5.35;;;2.42;;
23737;SDS011;12049;51.068;3.688;2022-12-07T16:04:47;6.07;;;2.88;;
23737;SDS011;12049;51.068;3.688;2022-12-07T16:07:13;9.85;;;3.20;;
23737;SDS011;12049;51.068;3.688;2022-12-07T16:09:40;7.90;;;2.70;;
23737;SDS011;12049;51.068;3.688;2022-12-07T16:12:10;8.43;;;3.35;;
23737;SDS011;12049;51.068;3.688;2022-12-07T16:14:37;5.53;;;2.20;;
23737;SDS011;12049;51.068;3.688;2022-12-07T16:17:03;6.63;;;2.45;;
23737;SDS011;12049;51.068;3.688;2022-12-07T16:19:30;7.55;;;3.00;;
23737;SDS011;12049;51.068;3.688;2022-12-07T16:21:56;5.40;;;3.00;;
23737;SDS011;12049;51.068;3.688;2022-12-07T16:24:22;6.80;;;2.90;;
23737;SDS011;12049;51.068;3.688;2022-12-07T16:26:48;8.73;;;3.20;;
23737;SDS011;12049;51.068;3.688;2022-12-07T16:29:14;7.30;;;2.72;;
23737;SDS011;12049;51.068;3.688;2022-12-07T16:31:41;7.68;;;3.10;;
23737;SDS011;12049;51.068;3.688;2022-12-07T16:34:07;6.50;;;2.80;;
23737;SDS011;12049;51.068;3.688;2022-12-07T16:36:33;7.43;;;3.17;;
23737;SDS011;12049;51.068;3.688;2022-12-07T16:38:59;7.13;;;3.10;;
23737;SDS011;12049;51.068;3.688;2022-12-07T16:41:26;6.82;;;3.58;;
23737;SDS011;12049;51.068;3.688;2022-12-07T16:43:51;6.07;;;4.22;;
23737;SDS011;12049;51.068;3.688;2022-12-07T16:46:17;11.93;;;6.00;;
23737;SDS011;12049;51.068;3.688;2022-12-07T16:48:43;13.57;;;7.38;;
23737;SDS011;12049;51.068;3.688;2022-12-07T16:51:10;20.63;;;10.65;;
23737;SDS011;12049;51.068;3.688;2022-12-07T16:53:38;15.93;;;9.02;;
23737;SDS011;12049;51.068;3.688;2022-12-07T16:56:09;13.15;;;8.10;;
23737;SDS011;12049;51.068;3.688;2022-12-07T16:58:43;15.15;;;7.53;;
23737;SDS011;12049;51.068;3.688;2022-12-07T17:01:12;16.52;;;6.00;;
23737;SDS011;12049;51.068;3.688;2022-12-07T17:03:43;13.68;;;7.05;;
23737;SDS011;12049;51.068;3.688;2022-12-07T17:06:20;18.88;;;8.07;;
23737;SDS011;12049;51.068;3.688;2022-12-07T17:08:47;14.38;;;6.93;;
23737;SDS011;12049;51.068;3.688;2022-12-07T17:11:15;12.32;;;5.80;;
23737;SDS011;12049;51.068;3.688;2022-12-07T17:13:43;13.68;;;6.15;;
23737;SDS011;12049;51.068;3.688;2022-12-07T17:16:28;9.55;;;6.03;;
23737;SDS011;12049;51.068;3.688;2022-12-07T17:18:54;13.38;;;6.20;;
23737;SDS011;12049;51.068;3.688;2022-12-07T17:21:20;12.60;;;6.00;;
23737;SDS011;12049;51.068;3.688;2022-12-07T17:23:46;11.85;;;5.82;;
23737;SDS011;12049;51.068;3.688;2022-12-07T17:26:14;12.05;;;5.75;;
23737;SDS011;12049;51.068;3.688;2022-12-07T17:28:41;13.93;;;6.53;;
23737;SDS011;12049;51.068;3.688;2022-12-07T17:31:09;15.35;;;6.88;;
23737;SDS011;12049;51.068;3.688;2022-12-07T17:33:36;18.25;;;6.78;;
23737;SDS011;12049;51.068;3.688;2022-12-07T17:36:08;10.30;;;6.28;;
23737;SDS011;12049;51.068;3.688;2022-12-07T17:38:38;13.43;;;6.43;;
23737;SDS011;12049;51.068;3.688;2022-12-07T17:41:11;11.98;;;6.35;;
23737;SDS011;12049;51.068;3.688;2022-12-07T17:43:59;15.77;;;6.40;;
23737;SDS011;12049;51.068;3.688;2022-12-07T17:46:25;11.35;;;6.60;;
23737;SDS011;12049;51.068;3.688;2022-12-07T17:48:53;11.30;;;6.25;;
23737;SDS011;12049;51.068;3.688;2022-12-07T17:51:19;9.27;;;6.18;;
23737;SDS011;12049;51.068;3.688;2022-12-07T17:54:03;9.60;;;6.50;;